ESUT

Details ICAO ESUT (HMV)
Name HEMAVAN
Region Sweden
Timezone Europe/Stockholm (UTC+1.0)
Plans Departing 3
Arriving 11
Stats Elevation 1,503 ft / 458 m (AMSL)
Location 65.805675° 15.083265°
Runways 1
Magnetic Variation 5.845° E
Sunrise 2017-12-11 09:14:30 UTC / 2017-12-11 10:14:30 Local
Sunset 2017-12-11 12:34:13 UTC / 2017-12-11 13:34:13 Local
Advertisement - Login to hide

Runways

ID Width Length Bearing (true) Bearing (mag) Surface Threshold Offset Overrun Length
15 98 ft / 30 m 5,239 ft / 1,597 m 152.57° 146.73° Asphalt 197 ft / 60 m 0 ft / 0 m
33 98 ft / 30 m 5,239 ft / 1,597 m 332.58° 326.74° Asphalt 482 ft / 147 m 0 ft / 0 m

Approach Navaids

Runway Type Ident Frequency Range Bearing (true) Bearing (mag) Slope Elevation
33 Localiser IUT 110.10 MHz 18 nm / 33 km 332.78° 326.93° - 1,503 ft / 458 m (AMSL)
33 Glidescope IUT 110.10 MHz 10 nm / 19 km 332.57° 326.73° 3.00° 1,503 ft / 458 m (AMSL)
33 DME IUT 110.10 MHz 18 nm / 33 km - - - 1,539 ft / 469 m (AMSL)

Map

Weather


0- 5 10 15 20 25 30 35+ Temperature / ° C

Clouds and Precipitation
Forecast for 2017-12-11 12:00 UTC. Updated 17 minutes ago

Ground ~20,000 ft ~40,000 ft Winds

METAR

ESUT 110920Z AUTO 14007KT 9999 BKN019/// OVC023/// M03/M06 Q0993

TAF

Not found
Warning: Do not use this data for real-world aviation or navigation. No guarantee of current accuracy is given.